CCF7 weather

Alida/Cowan Farm Private Aerodrome
Alida, Saskatchewan, Canada

Public forecast

Using degrees Celsius for public forecast. Weather courtesy of forecast.io.

METAR (pilot weather report)

Closest report is Estevan Airport, 46.0 nm (85.3 km) WSW. Retrieved 2019/07/21 06:00 UTC (30 minutes ago):

CYEN 210600Z AUTO 08005KT 9SM CLR 13/11 A3011 RMK SLP201

TAF (pilot weather forecast)

Forecast is more than 12 hours old.

Closest forecast is Estevan Airport, 46.0 nm (85.3 km) WSW. Retrieved 2019/07/20 18:00 UTC (13 hours ago):

TAF CYEN 201742Z 2018/2024 32012KT P6SM FEW040 FM202100 34012KT P6SM BKN050 RMK FCST BASED ON AUTO OBS. NXT FCST WILL BE ISSUED AT 211145Z